sensor_id;sensor_type;location;lat;lon;timestamp;P1;durP1;ratioP1;P2;durP2;ratioP2
77046;SDS011;65977;56.380;44.022;2023-02-28T00:00:32;9.75;;;3.95;;
77046;SDS011;65977;56.380;44.022;2023-02-28T00:02:58;5.30;;;2.75;;
77046;SDS011;65977;56.380;44.022;2023-02-28T00:05:25;6.55;;;4.03;;
77046;SDS011;65977;56.380;44.022;2023-02-28T00:07:52;6.10;;;4.00;;
77046;SDS011;65977;56.380;44.022;2023-02-28T00:10:19;5.25;;;3.65;;
77046;SDS011;65977;56.380;44.022;2023-02-28T00:12:50;6.47;;;3.83;;
77046;SDS011;65977;56.380;44.022;2023-02-28T00:15:16;6.47;;;3.38;;
77046;SDS011;65977;56.380;44.022;2023-02-28T00:17:42;5.28;;;2.38;;
77046;SDS011;65977;56.380;44.022;2023-02-28T00:20:08;7.70;;;3.72;;
77046;SDS011;65977;56.380;44.022;2023-02-28T00:22:35;6.60;;;3.92;;
77046;SDS011;65977;56.380;44.022;2023-02-28T00:25:03;9.52;;;4.85;;
77046;SDS011;65977;56.380;44.022;2023-02-28T00:27:30;7.80;;;3.55;;
77046;SDS011;65977;56.380;44.022;2023-02-28T00:29:55;9.45;;;4.85;;
77046;SDS011;65977;56.380;44.022;2023-02-28T00:32:21;8.43;;;4.22;;
77046;SDS011;65977;56.380;44.022;2023-02-28T00:34:47;6.55;;;4.15;;
77046;SDS011;65977;56.380;44.022;2023-02-28T00:37:12;8.43;;;4.93;;
77046;SDS011;65977;56.380;44.022;2023-02-28T00:39:38;11.00;;;4.40;;
77046;SDS011;65977;56.380;44.022;2023-02-28T00:42:05;13.63;;;7.43;;
77046;SDS011;65977;56.380;44.022;2023-02-28T00:44:31;6.05;;;4.00;;
77046;SDS011;65977;56.380;44.022;2023-02-28T00:46:57;10.32;;;6.00;;
77046;SDS011;65977;56.380;44.022;2023-02-28T00:49:24;8.25;;;5.05;;
77046;SDS011;65977;56.380;44.022;2023-02-28T00:51:51;10.90;;;5.68;;
77046;SDS011;65977;56.380;44.022;2023-02-28T00:54:17;7.20;;;3.70;;
77046;SDS011;65977;56.380;44.022;2023-02-28T00:56:43;6.80;;;3.75;;
77046;SDS011;65977;56.380;44.022;2023-02-28T00:59:11;11.48;;;5.05;;
77046;SDS011;65977;56.380;44.022;2023-02-28T01:01:38;7.85;;;5.35;;
77046;SDS011;65977;56.380;44.022;2023-02-28T01:04:03;10.32;;;5.38;;
77046;SDS011;65977;56.380;44.022;2023-02-28T01:06:30;8.93;;;4.03;;
77046;SDS011;65977;56.380;44.022;2023-02-28T01:08:56;7.18;;;4.80;;
77046;SDS011;65977;56.380;44.022;2023-02-28T01:11:22;12.60;;;6.13;;
77046;SDS011;65977;56.380;44.022;2023-02-28T01:13:48;8.57;;;5.40;;
77046;SDS011;65977;56.380;44.022;2023-02-28T01:16:14;8.05;;;5.10;;
77046;SDS011;65977;56.380;44.022;2023-02-28T01:18:40;10.05;;;5.40;;
77046;SDS011;65977;56.380;44.022;2023-02-28T01:21:06;8.30;;;4.95;;
77046;SDS011;65977;56.380;44.022;2023-02-28T01:23:33;6.82;;;4.00;;
77046;SDS011;65977;56.380;44.022;2023-02-28T01:26:10;8.90;;;5.15;;
77046;SDS011;65977;56.380;44.022;2023-02-28T01:28:38;7.43;;;3.95;;
77046;SDS011;65977;56.380;44.022;2023-02-28T01:31:05;8.07;;;4.05;;
77046;SDS011;65977;56.380;44.022;2023-02-28T01:33:31;7.80;;;4.60;;
77046;SDS011;65977;56.380;44.022;2023-02-28T01:35:58;8.65;;;4.93;;
77046;SDS011;65977;56.380;44.022;2023-02-28T01:38:27;9.07;;;4.60;;
77046;SDS011;65977;56.380;44.022;2023-02-28T01:40:53;6.72;;;4.00;;
77046;SDS011;65977;56.380;44.022;2023-02-28T01:43:20;11.98;;;6.30;;
77046;SDS011;65977;56.380;44.022;2023-02-28T01:45:46;9.98;;;5.53;;
77046;SDS011;65977;56.380;44.022;2023-02-28T01:48:12;8.77;;;5.75;;
77046;SDS011;65977;56.380;44.022;2023-02-28T01:50:39;11.77;;;6.22;;
77046;SDS011;65977;56.380;44.022;2023-02-28T01:53:10;12.00;;;6.50;;
77046;SDS011;65977;56.380;44.022;2023-02-28T01:55:39;11.98;;;6.25;;
77046;SDS011;65977;56.380;44.022;2023-02-28T01:58:07;24.38;;;10.07;;
77046;SDS011;65977;56.380;44.022;2023-02-28T02:00:34;11.52;;;5.70;;
77046;SDS011;65977;56.380;44.022;2023-02-28T02:03:01;10.23;;;6.25;;
77046;SDS011;65977;56.380;44.022;2023-02-28T02:05:32;7.68;;;4.85;;
77046;SDS011;65977;56.380;44.022;2023-02-28T02:08:02;10.45;;;6.82;;
77046;SDS011;65977;56.380;44.022;2023-02-28T02:10:35;15.68;;;6.88;;
77046;SDS011;65977;56.380;44.022;2023-02-28T02:18:39;8.10;;;4.65;;
77046;SDS011;65977;56.380;44.022;2023-02-28T02:29:31;11.32;;;5.13;;
77046;SDS011;65977;56.380;44.022;2023-02-28T02:37:45;11.10;;;4.63;;
77046;SDS011;65977;56.380;44.022;2023-02-28T02:40:32;8.73;;;5.72;;
77046;SDS011;65977;56.380;44.022;2023-02-28T02:46:20;10.27;;;6.05;;
77046;SDS011;65977;56.380;44.022;2023-02-28T02:48:52;9.38;;;4.13;;
77046;SDS011;65977;56.380;44.022;2023-02-28T02:51:24;9.57;;;6.15;;
77046;SDS011;65977;56.380;44.022;2023-02-28T02:53:54;9.98;;;6.53;;
77046;SDS011;65977;56.380;44.022;2023-02-28T02:56:26;9.82;;;5.10;;
77046;SDS011;65977;56.380;44.022;2023-02-28T02:58:54;11.95;;;5.38;;
77046;SDS011;65977;56.380;44.022;2023-02-28T03:01:24;10.43;;;6.68;;
77046;SDS011;65977;56.380;44.022;2023-02-28T03:03:55;7.30;;;4.45;;
77046;SDS011;65977;56.380;44.022;2023-02-28T03:06:23;8.32;;;6.05;;
77046;SDS011;65977;56.380;44.022;2023-02-28T03:08:49;6.30;;;4.50;;
77046;SDS011;65977;56.380;44.022;2023-02-28T03:11:15;10.82;;;5.53;;
77046;SDS011;65977;56.380;44.022;2023-02-28T03:16:36;10.68;;;5.05;;
77046;SDS011;65977;56.380;44.022;2023-02-28T03:28:18;6.35;;;3.13;;
77046;SDS011;65977;56.380;44.022;2023-02-28T03:33:44;5.22;;;3.22;;
77046;SDS011;65977;56.380;44.022;2023-02-28T03:36:32;8.32;;;4.45;;
77046;SDS011;65977;56.380;44.022;2023-02-28T03:41:45;5.70;;;3.42;;
77046;SDS011;65977;56.380;44.022;2023-02-28T03:46:47;5.60;;;4.07;;
77046;SDS011;65977;56.380;44.022;2023-02-28T03:49:23;3.80;;;2.75;;
77046;SDS011;65977;56.380;44.022;2023-02-28T03:51:57;5.68;;;2.90;;
77046;SDS011;65977;56.380;44.022;2023-02-28T03:54:27;5.00;;;3.08;;
77046;SDS011;65977;56.380;44.022;2023-02-28T03:56:59;7.60;;;4.20;;
77046;SDS011;65977;56.380;44.022;2023-02-28T03:59:34;7.38;;;4.55;;
77046;SDS011;65977;56.380;44.022;2023-02-28T04:02:09;7.50;;;4.75;;
77046;SDS011;65977;56.380;44.022;2023-02-28T04:04:35;4.15;;;2.78;;
77046;SDS011;65977;56.380;44.022;2023-02-28T04:07:03;3.58;;;2.40;;
77046;SDS011;65977;56.380;44.022;2023-02-28T04:09:31;5.55;;;3.40;;
77046;SDS011;65977;56.380;44.022;2023-02-28T04:11:57;6.47;;;3.55;;
77046;SDS011;65977;56.380;44.022;2023-02-28T04:14:23;4.72;;;3.05;;
77046;SDS011;65977;56.380;44.022;2023-02-28T04:16:48;2.95;;;2.10;;
77046;SDS011;65977;56.380;44.022;2023-02-28T04:19:16;5.82;;;2.42;;
77046;SDS011;65977;56.380;44.022;2023-02-28T04:21:45;5.00;;;2.63;;
77046;SDS011;65977;56.380;44.022;2023-02-28T04:24:14;4.05;;;2.17;;
77046;SDS011;65977;56.380;44.022;2023-02-28T04:26:42;4.43;;;3.03;;
77046;SDS011;65977;56.380;44.022;2023-02-28T04:29:11;4.47;;;2.83;;
77046;SDS011;65977;56.380;44.022;2023-02-28T04:31:39;4.72;;;3.83;;
77046;SDS011;65977;56.380;44.022;2023-02-28T04:34:05;5.95;;;3.70;;
77046;SDS011;65977;56.380;44.022;2023-02-28T04:36:31;4.05;;;2.50;;
77046;SDS011;65977;56.380;44.022;2023-02-28T04:38:57;4.38;;;2.65;;
77046;SDS011;65977;56.380;44.022;2023-02-28T04:41:23;4.53;;;3.13;;
77046;SDS011;65977;56.380;44.022;2023-02-28T04:43:50;4.78;;;2.90;;
77046;SDS011;65977;56.380;44.022;2023-02-28T04:46:17;4.03;;;2.95;;
77046;SDS011;65977;56.380;44.022;2023-02-28T04:48:43;4.28;;;3.08;;
77046;SDS011;65977;56.380;44.022;2023-02-28T04:51:14;5.63;;;3.25;;
77046;SDS011;65977;56.380;44.022;2023-02-28T04:53:41;5.85;;;3.72;;
77046;SDS011;65977;56.380;44.022;2023-02-28T04:56:08;4.35;;;2.85;;
77046;SDS011;65977;56.380;44.022;2023-02-28T04:58:37;5.15;;;3.17;;
77046;SDS011;65977;56.380;44.022;2023-02-28T05:01:04;4.20;;;3.08;;
77046;SDS011;65977;56.380;44.022;2023-02-28T05:03:41;4.95;;;3.20;;
77046;SDS011;65977;56.380;44.022;2023-02-28T05:06:07;4.45;;;3.10;;
77046;SDS011;65977;56.380;44.022;2023-02-28T05:08:34;4.70;;;2.60;;
77046;SDS011;65977;56.380;44.022;2023-02-28T05:11:00;6.00;;;3.55;;
77046;SDS011;65977;56.380;44.022;2023-02-28T05:13:26;5.28;;;3.22;;
77046;SDS011;65977;56.380;44.022;2023-02-28T05:15:53;4.63;;;3.25;;
77046;SDS011;65977;56.380;44.022;2023-02-28T05:18:19;3.97;;;2.67;;
77046;SDS011;65977;56.380;44.022;2023-02-28T05:20:44;5.80;;;2.85;;
77046;SDS011;65977;56.380;44.022;2023-02-28T05:23:13;4.68;;;2.83;;
77046;SDS011;65977;56.380;44.022;2023-02-28T05:25:41;5.55;;;3.75;;
77046;SDS011;65977;56.380;44.022;2023-02-28T05:28:07;5.15;;;3.17;;
77046;SDS011;65977;56.380;44.022;2023-02-28T05:30:32;4.85;;;3.50;;
77046;SDS011;65977;56.380;44.022;2023-02-28T05:32:58;3.97;;;2.67;;
77046;SDS011;65977;56.380;44.022;2023-02-28T05:35:25;4.30;;;2.67;;
77046;SDS011;65977;56.380;44.022;2023-02-28T05:37:51;4.55;;;3.70;;
77046;SDS011;65977;56.380;44.022;2023-02-28T05:40:17;4.60;;;3.00;;
77046;SDS011;65977;56.380;44.022;2023-02-28T05:42:45;4.40;;;2.90;;
77046;SDS011;65977;56.380;44.022;2023-02-28T05:45:11;5.47;;;4.50;;
77046;SDS011;65977;56.380;44.022;2023-02-28T05:47:37;3.83;;;2.95;;
77046;SDS011;65977;56.380;44.022;2023-02-28T05:50:03;5.55;;;3.60;;
77046;SDS011;65977;56.380;44.022;2023-02-28T05:52:30;7.18;;;3.90;;
77046;SDS011;65977;56.380;44.022;2023-02-28T05:54:55;5.70;;;4.43;;
77046;SDS011;65977;56.380;44.022;2023-02-28T05:57:21;4.47;;;3.30;;
77046;SDS011;65977;56.380;44.022;2023-02-28T05:59:48;8.00;;;4.05;;
77046;SDS011;65977;56.380;44.022;2023-02-28T06:02:14;5.70;;;3.83;;
77046;SDS011;65977;56.380;44.022;2023-02-28T06:04:41;8.20;;;3.50;;
77046;SDS011;65977;56.380;44.022;2023-02-28T06:07:07;6.10;;;3.75;;
77046;SDS011;65977;56.380;44.022;2023-02-28T06:09:34;4.05;;;2.33;;
77046;SDS011;65977;56.380;44.022;2023-02-28T06:12:00;4.57;;;3.65;;
77046;SDS011;65977;56.380;44.022;2023-02-28T06:14:29;3.72;;;2.85;;
77046;SDS011;65977;56.380;44.022;2023-02-28T06:16:56;4.72;;;3.42;;
77046;SDS011;65977;56.380;44.022;2023-02-28T06:19:22;4.95;;;3.22;;
77046;SDS011;65977;56.380;44.022;2023-02-28T06:21:51;5.35;;;3.25;;
77046;SDS011;65977;56.380;44.022;2023-02-28T06:24:20;6.40;;;3.78;;
77046;SDS011;65977;56.380;44.022;2023-02-28T06:26:47;3.45;;;2.25;;
77046;SDS011;65977;56.380;44.022;2023-02-28T06:29:13;7.32;;;4.03;;
77046;SDS011;65977;56.380;44.022;2023-02-28T06:31:44;4.32;;;3.25;;
77046;SDS011;65977;56.380;44.022;2023-02-28T06:34:10;5.90;;;4.25;;
77046;SDS011;65977;56.380;44.022;2023-02-28T06:36:37;6.82;;;4.00;;
77046;SDS011;65977;56.380;44.022;2023-02-28T06:39:04;5.53;;;4.18;;
77046;SDS011;65977;56.380;44.022;2023-02-28T06:41:31;4.45;;;3.13;;
77046;SDS011;65977;56.380;44.022;2023-02-28T06:44:03;5.97;;;4.93;;
77046;SDS011;65977;56.380;44.022;2023-02-28T06:46:42;4.20;;;3.38;;
77046;SDS011;65977;56.380;44.022;2023-02-28T06:49:09;5.00;;;3.28;;
77046;SDS011;65977;56.380;44.022;2023-02-28T06:51:36;5.40;;;3.55;;
77046;SDS011;65977;56.380;44.022;2023-02-28T06:54:04;4.40;;;3.53;;
77046;SDS011;65977;56.380;44.022;2023-02-28T06:56:30;5.13;;;3.35;;
77046;SDS011;65977;56.380;44.022;2023-02-28T06:58:56;6.50;;;3.83;;
77046;SDS011;65977;56.380;44.022;2023-02-28T07:01:22;9.40;;;4.40;;
77046;SDS011;65977;56.380;44.022;2023-02-28T07:03:49;5.05;;;4.30;;
77046;SDS011;65977;56.380;44.022;2023-02-28T07:06:18;6.07;;;3.63;;
77046;SDS011;65977;56.380;44.022;2023-02-28T07:08:44;7.35;;;5.03;;
77046;SDS011;65977;56.380;44.022;2023-02-28T07:11:10;7.03;;;3.97;;
77046;SDS011;65977;56.380;44.022;2023-02-28T07:13:36;8.27;;;4.90;;
77046;SDS011;65977;56.380;44.022;2023-02-28T07:16:03;10.18;;;5.10;;
77046;SDS011;65977;56.380;44.022;2023-02-28T07:18:30;6.63;;;4.55;;
77046;SDS011;65977;56.380;44.022;2023-02-28T07:20:57;5.13;;;4.20;;
77046;SDS011;65977;56.380;44.022;2023-02-28T07:23:23;7.30;;;4.63;;
77046;SDS011;65977;56.380;44.022;2023-02-28T07:25:49;6.28;;;4.30;;
77046;SDS011;65977;56.380;44.022;2023-02-28T07:28:16;6.70;;;4.75;;
77046;SDS011;65977;56.380;44.022;2023-02-28T07:30:42;7.93;;;4.93;;
77046;SDS011;65977;56.380;44.022;2023-02-28T07:33:07;6.18;;;4.47;;
77046;SDS011;65977;56.380;44.022;2023-02-28T07:35:33;6.20;;;4.00;;
77046;SDS011;65977;56.380;44.022;2023-02-28T07:37:59;6.13;;;4.68;;
77046;SDS011;65977;56.380;44.022;2023-02-28T07:40:26;4.43;;;3.42;;
77046;SDS011;65977;56.380;44.022;2023-02-28T07:42:52;7.50;;;4.20;;
77046;SDS011;65977;56.380;44.022;2023-02-28T07:45:17;5.85;;;4.40;;
77046;SDS011;65977;56.380;44.022;2023-02-28T07:47:44;6.70;;;4.45;;
77046;SDS011;65977;56.380;44.022;2023-02-28T07:50:11;6.68;;;5.30;;
77046;SDS011;65977;56.380;44.022;2023-02-28T07:52:39;6.22;;;4.47;;
77046;SDS011;65977;56.380;44.022;2023-02-28T07:55:06;6.30;;;3.90;;
77046;SDS011;65977;56.380;44.022;2023-02-28T07:57:34;7.15;;;4.55;;
77046;SDS011;65977;56.380;44.022;2023-02-28T08:00:00;5.78;;;4.45;;
77046;SDS011;65977;56.380;44.022;2023-02-28T08:02:27;9.35;;;5.40;;
77046;SDS011;65977;56.380;44.022;2023-02-28T08:04:52;8.27;;;4.63;;
77046;SDS011;65977;56.380;44.022;2023-02-28T08:07:18;9.35;;;6.18;;
77046;SDS011;65977;56.380;44.022;2023-02-28T08:09:44;10.50;;;5.68;;
77046;SDS011;65977;56.380;44.022;2023-02-28T08:12:10;8.05;;;4.63;;
77046;SDS011;65977;56.380;44.022;2023-02-28T08:14:36;9.38;;;5.07;;
77046;SDS011;65977;56.380;44.022;2023-02-28T08:17:02;8.52;;;5.03;;
77046;SDS011;65977;56.380;44.022;2023-02-28T08:19:29;5.70;;;4.25;;
77046;SDS011;65977;56.380;44.022;2023-02-28T08:21:55;9.27;;;4.80;;
77046;SDS011;65977;56.380;44.022;2023-02-28T08:24:21;6.20;;;4.32;;
77046;SDS011;65977;56.380;44.022;2023-02-28T08:26:47;5.93;;;4.07;;
77046;SDS011;65977;56.380;44.022;2023-02-28T08:29:13;6.80;;;4.20;;
77046;SDS011;65977;56.380;44.022;2023-02-28T08:31:39;7.72;;;5.47;;
77046;SDS011;65977;56.380;44.022;2023-02-28T08:34:06;8.18;;;5.05;;
77046;SDS011;65977;56.380;44.022;2023-02-28T08:36:32;10.45;;;3.90;;
77046;SDS011;65977;56.380;44.022;2023-02-28T08:38:58;7.03;;;4.32;;
77046;SDS011;65977;56.380;44.022;2023-02-28T08:41:24;9.63;;;4.38;;
77046;SDS011;65977;56.380;44.022;2023-02-28T08:43:51;9.30;;;5.13;;
77046;SDS011;65977;56.380;44.022;2023-02-28T08:46:16;9.05;;;5.50;;
77046;SDS011;65977;56.380;44.022;2023-02-28T08:48:42;7.18;;;4.72;;
77046;SDS011;65977;56.380;44.022;2023-02-28T08:51:10;8.35;;;4.88;;
77046;SDS011;65977;56.380;44.022;2023-02-28T08:53:38;6.72;;;4.78;;
77046;SDS011;65977;56.380;44.022;2023-02-28T08:56:06;7.05;;;5.00;;
77046;SDS011;65977;56.380;44.022;2023-02-28T08:58:34;7.50;;;5.40;;
77046;SDS011;65977;56.380;44.022;2023-02-28T09:01:00;7.35;;;5.45;;
77046;SDS011;65977;56.380;44.022;2023-02-28T09:03:32;7.60;;;5.05;;
77046;SDS011;65977;56.380;44.022;2023-02-28T09:05:58;7.78;;;5.05;;
77046;SDS011;65977;56.380;44.022;2023-02-28T09:08:26;7.03;;;4.47;;
77046;SDS011;65977;56.380;44.022;2023-02-28T09:10:53;7.57;;;4.80;;
77046;SDS011;65977;56.380;44.022;2023-02-28T09:13:22;7.78;;;5.07;;
77046;SDS011;65977;56.380;44.022;2023-02-28T09:15:47;9.65;;;4.97;;
77046;SDS011;65977;56.380;44.022;2023-02-28T09:18:13;6.97;;;4.80;;
77046;SDS011;65977;56.380;44.022;2023-02-28T09:20:40;6.28;;;3.60;;
77046;SDS011;65977;56.380;44.022;2023-02-28T09:23:07;5.97;;;4.07;;
77046;SDS011;65977;56.380;44.022;2023-02-28T09:25:34;7.60;;;4.72;;
77046;SDS011;65977;56.380;44.022;2023-02-28T09:28:00;7.90;;;5.05;;
77046;SDS011;65977;56.380;44.022;2023-02-28T09:30:25;6.30;;;4.75;;
77046;SDS011;65977;56.380;44.022;2023-02-28T09:32:51;7.47;;;5.03;;
77046;SDS011;65977;56.380;44.022;2023-02-28T09:35:22;8.45;;;4.18;;
77046;SDS011;65977;56.380;44.022;2023-02-28T09:37:49;7.20;;;4.65;;
77046;SDS011;65977;56.380;44.022;2023-02-28T09:40:17;6.63;;;4.75;;
77046;SDS011;65977;56.380;44.022;2023-02-28T09:42:48;7.45;;;5.18;;
77046;SDS011;65977;56.380;44.022;2023-02-28T09:45:27;8.63;;;4.63;;
77046;SDS011;65977;56.380;44.022;2023-02-28T09:48:04;5.22;;;4.05;;
77046;SDS011;65977;56.380;44.022;2023-02-28T09:50:40;8.80;;;4.20;;
77046;SDS011;65977;56.380;44.022;2023-02-28T09:53:21;8.65;;;5.15;;
77046;SDS011;65977;56.380;44.022;2023-02-28T09:56:01;6.63;;;4.80;;
77046;SDS011;65977;56.380;44.022;2023-02-28T10:04:28;5.93;;;3.85;;
77046;SDS011;65977;56.380;44.022;2023-02-28T10:09:53;7.80;;;4.45;;
77046;SDS011;65977;56.380;44.022;2023-02-28T10:12:26;7.70;;;5.68;;
77046;SDS011;65977;56.380;44.022;2023-02-28T10:14:55;9.32;;;5.78;;
77046;SDS011;65977;56.380;44.022;2023-02-28T10:17:30;8.48;;;5.25;;
77046;SDS011;65977;56.380;44.022;2023-02-28T10:22:42;8.63;;;5.38;;
77046;SDS011;65977;56.380;44.022;2023-02-28T10:25:21;7.82;;;4.75;;
77046;SDS011;65977;56.380;44.022;2023-02-28T10:27:58;10.32;;;6.85;;
77046;SDS011;65977;56.380;44.022;2023-02-28T10:30:30;9.85;;;6.10;;
77046;SDS011;65977;56.380;44.022;2023-02-28T10:32:56;6.63;;;4.35;;
77046;SDS011;65977;56.380;44.022;2023-02-28T10:35:22;10.07;;;6.70;;
77046;SDS011;65977;56.380;44.022;2023-02-28T10:37:56;7.03;;;5.40;;
77046;SDS011;65977;56.380;44.022;2023-02-28T10:40:27;6.20;;;4.03;;
77046;SDS011;65977;56.380;44.022;2023-02-28T10:45:38;7.18;;;4.72;;
77046;SDS011;65977;56.380;44.022;2023-02-28T10:50:51;10.40;;;6.05;;
77046;SDS011;65977;56.380;44.022;2023-02-28T10:56:36;8.35;;;4.40;;
77046;SDS011;65977;56.380;44.022;2023-02-28T10:58:47;12.30;;;5.78;;
77046;SDS011;65977;56.380;44.022;2023-02-28T11:03:57;9.35;;;6.10;;
77046;SDS011;65977;56.380;44.022;2023-02-28T11:06:25;8.10;;;5.63;;
77046;SDS011;65977;56.380;44.022;2023-02-28T11:08:58;11.48;;;6.40;;
77046;SDS011;65977;56.380;44.022;2023-02-28T11:11:28;14.93;;;6.15;;
77046;SDS011;65977;56.380;44.022;2023-02-28T11:14:03;10.15;;;6.57;;
77046;SDS011;65977;56.380;44.022;2023-02-28T11:16:34;9.55;;;5.68;;
77046;SDS011;65977;56.380;44.022;2023-02-28T11:19:02;8.18;;;5.20;;
77046;SDS011;65977;56.380;44.022;2023-02-28T11:21:32;6.90;;;4.30;;
77046;SDS011;65977;56.380;44.022;2023-02-28T11:24:24;8.35;;;4.10;;
77046;SDS011;65977;56.380;44.022;2023-02-28T11:26:54;7.72;;;5.07;;
77046;SDS011;65977;56.380;44.022;2023-02-28T11:29:21;8.05;;;5.22;;
77046;SDS011;65977;56.380;44.022;2023-02-28T11:32:02;13.63;;;4.57;;
77046;SDS011;65977;56.380;44.022;2023-02-28T11:34:28;8.20;;;4.70;;
77046;SDS011;65977;56.380;44.022;2023-02-28T11:36:54;5.78;;;4.15;;
77046;SDS011;65977;56.380;44.022;2023-02-28T11:39:22;9.68;;;5.05;;
77046;SDS011;65977;56.380;44.022;2023-02-28T11:47:04;6.30;;;4.63;;
77046;SDS011;65977;56.380;44.022;2023-02-28T12:05:57;5.50;;;3.63;;
77046;SDS011;65977;56.380;44.022;2023-02-28T12:08:59;7.28;;;3.58;;
77046;SDS011;65977;56.380;44.022;2023-02-28T12:11:52;6.35;;;4.25;;
77046;SDS011;65977;56.380;44.022;2023-02-28T12:23:15;6.82;;;4.40;;
77046;SDS011;65977;56.380;44.022;2023-02-28T12:25:31;5.88;;;4.05;;
77046;SDS011;65977;56.380;44.022;2023-02-28T12:28:02;8.20;;;4.97;;
77046;SDS011;65977;56.380;44.022;2023-02-28T12:30:30;8.82;;;4.25;;
77046;SDS011;65977;56.380;44.022;2023-02-28T12:33:03;6.00;;;4.30;;
77046;SDS011;65977;56.380;44.022;2023-02-28T12:35:52;6.05;;;3.53;;
77046;SDS011;65977;56.380;44.022;2023-02-28T12:38:27;5.32;;;3.33;;
77046;SDS011;65977;56.380;44.022;2023-02-28T12:41:10;6.35;;;4.22;;
77046;SDS011;65977;56.380;44.022;2023-02-28T12:43:41;6.63;;;4.40;;
77046;SDS011;65977;56.380;44.022;2023-02-28T12:46:24;6.15;;;4.22;;
77046;SDS011;65977;56.380;44.022;2023-02-28T12:48:57;5.00;;;3.83;;
77046;SDS011;65977;56.380;44.022;2023-02-28T12:51:25;5.95;;;3.88;;
77046;SDS011;65977;56.380;44.022;2023-02-28T13:07:57;7.95;;;5.55;;
77046;SDS011;65977;56.380;44.022;2023-02-28T13:10:46;7.55;;;5.15;;
77046;SDS011;65977;56.380;44.022;2023-02-28T13:13:26;6.25;;;4.22;;
77046;SDS011;65977;56.380;44.022;2023-02-28T13:18:43;6.13;;;3.45;;
77046;SDS011;65977;56.380;44.022;2023-02-28T13:21:24;9.85;;;6.05;;
77046;SDS011;65977;56.380;44.022;2023-02-28T13:34:31;6.85;;;5.22;;
77046;SDS011;65977;56.380;44.022;2023-02-28T13:39:58;9.27;;;4.72;;
77046;SDS011;65977;56.380;44.022;2023-02-28T13:47:44;8.93;;;5.47;;
77046;SDS011;65977;56.380;44.022;2023-02-28T13:53:14;9.00;;;5.10;;
77046;SDS011;65977;56.380;44.022;2023-02-28T14:07:10;8.50;;;4.63;;
77046;SDS011;65977;56.380;44.022;2023-02-28T14:09:46;8.57;;;5.20;;
77046;SDS011;65977;56.380;44.022;2023-02-28T14:17:54;7.68;;;5.10;;
77046;SDS011;65977;56.380;44.022;2023-02-28T14:20:22;7.45;;;4.03;;
77046;SDS011;65977;56.380;44.022;2023-02-28T14:31:47;8.88;;;5.45;;
77046;SDS011;65977;56.380;44.022;2023-02-28T14:36:58;7.10;;;4.55;;
77046;SDS011;65977;56.380;44.022;2023-02-28T14:39:27;6.68;;;4.13;;
77046;SDS011;65977;56.380;44.022;2023-02-28T14:41:56;6.07;;;3.80;;
77046;SDS011;65977;56.380;44.022;2023-02-28T14:44:25;8.07;;;5.28;;
77046;SDS011;65977;56.380;44.022;2023-02-28T14:46:53;8.07;;;4.45;;
77046;SDS011;65977;56.380;44.022;2023-02-28T14:52:15;6.93;;;4.13;;
77046;SDS011;65977;56.380;44.022;2023-02-28T14:54:42;11.25;;;5.05;;
77046;SDS011;65977;56.380;44.022;2023-02-28T14:57:25;8.30;;;3.95;;
77046;SDS011;65977;56.380;44.022;2023-02-28T15:02:45;6.32;;;3.85;;
77046;SDS011;65977;56.380;44.022;2023-02-28T15:07:37;7.07;;;4.70;;
77046;SDS011;65977;56.380;44.022;2023-02-28T15:12:55;9.25;;;4.95;;
77046;SDS011;65977;56.380;44.022;2023-02-28T15:15:21;9.45;;;4.50;;
77046;SDS011;65977;56.380;44.022;2023-02-28T15:17:55;8.18;;;5.28;;
77046;SDS011;65977;56.380;44.022;2023-02-28T15:20:24;8.60;;;4.85;;
77046;SDS011;65977;56.380;44.022;2023-02-28T15:22:51;6.68;;;3.70;;
77046;SDS011;65977;56.380;44.022;2023-02-28T15:25:21;6.40;;;3.72;;
77046;SDS011;65977;56.380;44.022;2023-02-28T15:27:52;7.43;;;4.63;;
77046;SDS011;65977;56.380;44.022;2023-02-28T15:30:21;6.78;;;4.13;;
77046;SDS011;65977;56.380;44.022;2023-02-28T15:35:51;8.25;;;6.13;;
77046;SDS011;65977;56.380;44.022;2023-02-28T15:38:32;7.22;;;4.50;;
77046;SDS011;65977;56.380;44.022;2023-02-28T15:41:00;9.23;;;4.38;;
77046;SDS011;65977;56.380;44.022;2023-02-28T15:43:26;6.80;;;4.07;;
77046;SDS011;65977;56.380;44.022;2023-02-28T15:48:25;5.65;;;3.78;;
77046;SDS011;65977;56.380;44.022;2023-02-28T15:50:55;5.70;;;4.10;;
77046;SDS011;65977;56.380;44.022;2023-02-28T15:59:21;7.25;;;4.22;;
77046;SDS011;65977;56.380;44.022;2023-02-28T16:04:34;7.63;;;5.07;;
77046;SDS011;65977;56.380;44.022;2023-02-28T16:07:11;6.20;;;4.18;;
77046;SDS011;65977;56.380;44.022;2023-02-28T16:09:37;7.82;;;4.40;;
77046;SDS011;65977;56.380;44.022;2023-02-28T16:12:04;6.35;;;3.90;;
77046;SDS011;65977;56.380;44.022;2023-02-28T16:14:30;8.25;;;4.70;;
77046;SDS011;65977;56.380;44.022;2023-02-28T16:17:02;8.70;;;4.72;;
77046;SDS011;65977;56.380;44.022;2023-02-28T16:19:32;6.80;;;3.78;;
77046;SDS011;65977;56.380;44.022;2023-02-28T16:21:58;6.97;;;4.32;;
77046;SDS011;65977;56.380;44.022;2023-02-28T16:24:24;6.85;;;4.35;;
77046;SDS011;65977;56.380;44.022;2023-02-28T16:26:50;9.07;;;4.45;;
77046;SDS011;65977;56.380;44.022;2023-02-28T16:29:26;6.68;;;4.07;;
77046;SDS011;65977;56.380;44.022;2023-02-28T16:31:55;6.78;;;4.15;;
77046;SDS011;65977;56.380;44.022;2023-02-28T16:34:21;7.07;;;4.43;;
77046;SDS011;65977;56.380;44.022;2023-02-28T16:36:54;8.63;;;3.90;;
77046;SDS011;65977;56.380;44.022;2023-02-28T16:39:20;6.65;;;3.95;;
77046;SDS011;65977;56.380;44.022;2023-02-28T16:41:46;6.07;;;3.65;;
77046;SDS011;65977;56.380;44.022;2023-02-28T16:44:18;5.95;;;3.45;;
77046;SDS011;65977;56.380;44.022;2023-02-28T16:46:51;6.05;;;3.72;;
77046;SDS011;65977;56.380;44.022;2023-02-28T16:49:18;7.15;;;3.53;;
77046;SDS011;65977;56.380;44.022;2023-02-28T16:51:46;7.28;;;4.03;;
77046;SDS011;65977;56.380;44.022;2023-02-28T16:54:12;5.00;;;2.80;;
77046;SDS011;65977;56.380;44.022;2023-02-28T16:56:38;6.05;;;3.67;;
77046;SDS011;65977;56.380;44.022;2023-02-28T16:59:08;6.22;;;3.58;;
77046;SDS011;65977;56.380;44.022;2023-02-28T17:01:35;7.60;;;4.35;;
77046;SDS011;65977;56.380;44.022;2023-02-28T17:04:01;5.65;;;3.70;;
77046;SDS011;65977;56.380;44.022;2023-02-28T17:06:27;6.15;;;3.30;;
77046;SDS011;65977;56.380;44.022;2023-02-28T17:08:54;8.43;;;4.20;;
77046;SDS011;65977;56.380;44.022;2023-02-28T17:11:21;5.05;;;3.53;;
77046;SDS011;65977;56.380;44.022;2023-02-28T17:13:47;6.50;;;4.10;;
77046;SDS011;65977;56.380;44.022;2023-02-28T17:16:22;5.10;;;3.10;;
77046;SDS011;65977;56.380;44.022;2023-02-28T17:18:52;6.28;;;3.47;;
77046;SDS011;65977;56.380;44.022;2023-02-28T17:21:20;6.43;;;3.60;;
77046;SDS011;65977;56.380;44.022;2023-02-28T17:23:45;6.93;;;3.80;;
77046;SDS011;65977;56.380;44.022;2023-02-28T17:26:15;5.93;;;3.17;;
77046;SDS011;65977;56.380;44.022;2023-02-28T17:28:46;5.57;;;3.22;;
77046;SDS011;65977;56.380;44.022;2023-02-28T17:31:12;5.97;;;3.92;;
77046;SDS011;65977;56.380;44.022;2023-02-28T17:33:38;4.93;;;3.45;;
77046;SDS011;65977;56.380;44.022;2023-02-28T17:36:04;5.15;;;2.90;;
77046;SDS011;65977;56.380;44.022;2023-02-28T17:38:31;5.47;;;3.40;;
77046;SDS011;65977;56.380;44.022;2023-02-28T17:40:58;6.78;;;4.22;;
77046;SDS011;65977;56.380;44.022;2023-02-28T17:43:25;5.72;;;3.17;;
77046;SDS011;65977;56.380;44.022;2023-02-28T17:45:52;5.28;;;2.83;;
77046;SDS011;65977;56.380;44.022;2023-02-28T17:48:18;4.82;;;3.25;;
77046;SDS011;65977;56.380;44.022;2023-02-28T17:50:44;5.80;;;2.90;;